createdAt,value
2018-02-10T00:01:44.509Z,85.93
2018-02-10T00:04:12.768Z,86.47
2018-02-10T00:06:41.848Z,86.57
2018-02-10T00:09:11.885Z,86.14
2018-02-10T00:11:40.186Z,86.39
2018-02-10T00:14:09.297Z,86.76
2018-02-10T00:16:37.683Z,85.95
2018-02-10T00:19:06.157Z,85.95
2018-02-10T00:21:34.648Z,86.29
2018-02-10T00:24:02.943Z,86.13
2018-02-10T00:26:31.240Z,86.07
2018-02-10T00:28:59.549Z,86.41
2018-02-10T00:31:28.595Z,86.14
2018-02-10T00:33:56.883Z,86.50
2018-02-10T00:36:25.165Z,86.53
2018-02-10T00:38:53.443Z,86.79
2018-02-10T00:41:22.481Z,86.84
2018-02-10T00:43:50.751Z,87.03
2018-02-10T00:46:19.048Z,86.79
2018-02-10T00:48:47.332Z,86.71
2018-02-10T00:51:15.619Z,86.64
2018-02-10T00:53:43.907Z,87.01
2018-02-10T00:56:12.178Z,86.69
2018-02-10T00:58:40.451Z,86.61
2018-02-10T01:01:09.556Z,86.65
2018-02-10T01:03:38.630Z,86.60
2018-02-10T01:06:07.063Z,86.72
2018-02-10T01:08:35.346Z,87.08
2018-02-10T01:11:04.586Z,86.70
2018-02-10T01:13:33.615Z,87.27
2018-02-10T01:16:01.934Z,86.63
2018-02-10T01:18:30.238Z,87.35
2018-02-10T01:21:00.636Z,87.34
2018-02-10T01:23:28.923Z,86.89
2018-02-10T01:25:57.203Z,87.36
2018-02-10T01:28:25.581Z,87.07
2018-02-10T01:30:53.859Z,87.57
2018-02-10T01:33:22.955Z,87.07
2018-02-10T01:35:52.065Z,87.13
2018-02-10T01:38:21.110Z,87.57
2018-02-10T01:40:49.364Z,87.65
2018-02-10T01:43:17.691Z,88.12
2018-02-10T01:45:45.975Z,87.66
2018-02-10T01:48:14.276Z,87.69
2018-02-10T01:50:42.531Z,87.06
2018-02-10T01:53:10.807Z,87.12
2018-02-10T01:55:39.896Z,86.89
2018-02-10T01:58:08.313Z,86.47
2018-02-10T02:00:36.707Z,85.53
2018-02-10T02:03:06.015Z,86.18
2018-02-10T02:05:34.329Z,85.68
2018-02-10T02:08:02.637Z,85.86
2018-02-10T02:10:30.905Z,85.86
2018-02-10T02:12:59.215Z,85.51
2018-02-10T02:15:27.473Z,85.74
2018-02-10T02:17:56.530Z,85.62
2018-02-10T02:20:24.899Z,84.91
2018-02-10T02:22:54.031Z,84.79
2018-02-10T02:25:22.429Z,83.77
2018-02-10T02:27:50.795Z,83.29
2018-02-10T02:30:19.072Z,84.41
2018-02-10T02:32:47.379Z,83.84
2018-02-10T02:35:15.636Z,83.40
2018-02-10T02:37:45.356Z,83.25
2018-02-10T02:40:14.415Z,83.73
2018-02-10T02:42:42.672Z,83.87
2018-02-10T02:45:10.962Z,83.05
2018-02-10T02:47:39.283Z,83.74
2018-02-10T02:50:07.633Z,83.05
2018-02-10T02:52:36.329Z,83.18
2018-02-10T02:55:04.658Z,82.02
2018-02-10T02:57:32.948Z,82.77
2018-02-10T03:00:01.256Z,82.46
2018-02-10T03:02:29.531Z,82.74
2018-02-10T03:04:57.829Z,82.69
2018-02-10T03:07:26.132Z,82.19
2018-02-10T03:09:54.486Z,82.10
2018-02-10T03:12:22.763Z,82.54
2018-02-10T03:14:51.031Z,82.82
2018-02-10T03:17:19.294Z,82.77
2018-02-10T03:19:47.582Z,83.06
2018-02-10T03:22:16.076Z,83.19
2018-02-10T03:24:44.368Z,83.28
2018-02-10T03:27:12.633Z,84.12
2018-02-10T03:29:40.955Z,83.50
2018-02-10T03:32:09.300Z,83.67
2018-02-10T03:34:37.689Z,83.70
2018-02-10T03:37:06.025Z,83.60
2018-02-10T03:39:34.394Z,83.87
2018-02-10T03:42:02.681Z,83.79
2018-02-10T03:44:31.050Z,83.88
2018-02-10T03:46:59.340Z,84.04
2018-02-10T03:49:27.617Z,84.01
2018-02-10T03:51:55.913Z,83.42
2018-02-10T03:54:24.238Z,83.71
2018-02-10T03:56:52.579Z,83.67
2018-02-10T03:59:20.860Z,83.81
2018-02-10T04:01:49.127Z,83.82
2018-02-10T04:04:18.159Z,84.05
2018-02-10T04:06:46.465Z,84.16
2018-02-10T04:09:14.734Z,84.22
2018-02-10T04:11:43.006Z,83.78
2018-02-10T04:14:11.273Z,84.22
2018-02-10T04:16:39.585Z,84.47
2018-02-10T04:19:08.644Z,83.98
2018-02-10T04:21:37.046Z,84.45
2018-02-10T04:24:05.418Z,84.50
2018-02-10T04:26:34.174Z,84.83
2018-02-10T04:29:02.566Z,83.98
2018-02-10T04:31:30.871Z,83.92
2018-02-10T04:33:59.139Z,83.75
2018-02-10T04:36:28.358Z,84.13
2018-02-10T04:38:56.640Z,84.58
2018-02-10T04:41:25.688Z,84.03
2018-02-10T04:43:53.970Z,84.28
2018-02-10T04:46:22.248Z,84.17
2018-02-10T04:48:50.550Z,84.31
2018-02-10T04:51:19.617Z,84.05
2018-02-10T04:53:47.888Z,84.89
2018-02-10T04:56:17.043Z,85.41
2018-02-10T04:58:45.320Z,85.12
2018-02-10T05:01:13.642Z,85.50
2018-02-10T05:03:41.937Z,85.58
2018-02-10T05:06:10.228Z,85.63
2018-02-10T05:08:38.483Z,84.90
2018-02-10T05:11:06.759Z,84.83
2018-02-10T05:13:35.022Z,84.90
2018-02-10T05:16:03.299Z,85.45
2018-02-10T05:18:31.583Z,85.76
2018-02-10T05:20:59.850Z,85.27
2018-02-10T05:23:28.115Z,84.75
2018-02-10T05:25:56.416Z,85.03
2018-02-10T05:28:25.484Z,84.48
2018-02-10T05:30:53.746Z,83.85
2018-02-10T05:33:22.073Z,83.30
2018-02-10T05:35:51.460Z,83.75
2018-02-10T05:38:20.403Z,83.79
2018-02-10T05:40:48.749Z,83.89
2018-02-10T05:43:17.098Z,83.85
2018-02-10T05:45:45.714Z,84.34
2018-02-10T05:48:14.204Z,83.00
2018-02-10T05:50:42.753Z,82.61
2018-02-10T05:53:11.287Z,83.21
2018-02-10T05:55:39.838Z,84.24
2018-02-10T05:58:09.131Z,84.80
2018-02-10T06:00:37.677Z,84.60
2018-02-10T06:03:06.318Z,84.80
2018-02-10T06:05:35.052Z,84.38
2018-02-10T06:08:03.564Z,84.63
2018-02-10T06:10:32.279Z,84.96
2018-02-10T06:13:01.062Z,85.35
2018-02-10T06:15:29.567Z,84.85
2018-02-10T06:17:58.229Z,85.22
2018-02-10T06:20:26.671Z,84.99
2018-02-10T06:22:55.172Z,85.02
2018-02-10T06:25:24.274Z,84.83
2018-02-10T06:27:52.849Z,84.99
2018-02-10T06:30:21.232Z,85.30
2018-02-10T06:32:50.191Z,84.38
2018-02-10T06:35:18.735Z,84.19
2018-02-10T06:37:47.413Z,84.09
2018-02-10T06:40:16.496Z,84.26
2018-02-10T06:42:44.803Z,82.92
2018-02-10T06:45:13.906Z,82.84
2018-02-10T06:47:42.381Z,82.77
2018-02-10T06:50:11.042Z,82.75
2018-02-10T06:52:39.750Z,82.75
2018-02-10T06:55:08.550Z,81.68
2018-02-10T06:57:37.819Z,81.28
2018-02-10T07:00:06.639Z,80.42
2018-02-10T07:02:35.132Z,81.27
2018-02-10T07:05:03.752Z,81.10
2018-02-10T07:07:33.171Z,81.42
2018-02-10T07:10:02.895Z,80.05
2018-02-10T07:12:32.307Z,79.24
2018-02-10T07:15:00.683Z,79.64
2018-02-10T07:17:29.711Z,79.99
2018-02-10T07:19:58.766Z,79.77
2018-02-10T07:22:27.050Z,89.17
2018-02-10T07:24:55.398Z,80.58
2018-02-10T07:27:24.422Z,81.07
2018-02-10T07:29:52.698Z,82.17
2018-02-10T07:32:20.996Z,83.74
2018-02-10T07:34:50.042Z,84.43
2018-02-10T07:37:18.303Z,83.70
2018-02-10T07:39:46.659Z,84.42
2018-02-10T07:42:14.923Z,83.68
2018-02-10T07:44:43.207Z,84.41
2018-02-10T07:47:11.483Z,83.28
2018-02-10T07:49:39.780Z,82.94
2018-02-10T07:52:08.156Z,82.81
2018-02-10T07:54:36.457Z,83.91
2018-02-10T07:57:04.810Z,83.36
2018-02-10T07:59:33.146Z,84.45
2018-02-10T08:02:01.414Z,85.39
2018-02-10T08:04:30.055Z,85.99
2018-02-10T08:06:58.810Z,85.79
2018-02-10T08:09:27.393Z,86.87
2018-02-10T08:11:56.931Z,86.35
2018-02-10T08:14:25.373Z,87.20
2018-02-10T08:16:54.738Z,86.11
2018-02-10T08:19:24.173Z,86.92
2018-02-10T08:21:53.254Z,86.60
2018-02-10T08:24:22.047Z,86.78
2018-02-10T08:26:50.881Z,86.88
2018-02-10T08:29:20.279Z,86.44
2018-02-10T08:31:49.108Z,85.65
2018-02-10T08:34:18.075Z,85.53
2018-02-10T08:36:46.940Z,97.46
2018-02-10T08:39:15.386Z,78.51
2018-02-10T08:41:44.101Z,71.42
2018-02-10T08:44:13.033Z,77.42
2018-02-10T08:46:42.102Z,80.18
2018-02-10T08:49:10.655Z,81.47
2018-02-10T08:51:40.067Z,80.74
2018-02-10T08:54:10.292Z,81.51
2018-02-10T08:56:38.764Z,78.43
2018-02-10T08:59:08.369Z,80.28
2018-02-10T09:01:37.383Z,81.02
2018-02-10T09:04:06.212Z,81.21
2018-02-10T09:06:36.038Z,80.28
2018-02-10T09:09:05.823Z,80.35
2018-02-10T09:11:34.361Z,80.33
2018-02-10T09:14:04.120Z,80.33
2018-02-10T09:16:34.024Z,79.37
2018-02-10T09:19:02.708Z,79.00
2018-02-10T09:21:31.485Z,78.58
2018-02-10T09:24:00.521Z,79.19
2018-02-10T09:26:29.157Z,78.65
2018-02-10T09:28:57.851Z,77.65
2018-02-10T09:31:26.821Z,78.33
2018-02-10T09:33:56.186Z,78.92
2018-02-10T09:36:25.829Z,78.21
2018-02-10T09:38:54.710Z,76.94
2018-02-10T09:41:24.453Z,75.99
2018-02-10T09:43:53.178Z,77.02
2018-02-10T09:46:22.709Z,76.39
2018-02-10T09:48:51.223Z,75.28
2018-02-10T09:51:20.992Z,75.11
2018-02-10T09:53:49.936Z,75.00
2018-02-10T09:56:18.528Z,74.75
2018-02-10T09:58:47.585Z,72.77
2018-02-10T10:01:16.212Z,73.30
2018-02-10T10:03:44.680Z,72.98
2018-02-10T10:06:13.258Z,73.04
2018-02-10T10:08:42.247Z,72.61
2018-02-10T10:11:11.840Z,74.04
2018-02-10T10:13:40.538Z,73.08
2018-02-10T10:16:09.710Z,74.45
2018-02-10T10:18:38.536Z,73.51
2018-02-10T10:21:07.332Z,71.79
2018-02-10T10:23:36.430Z,72.53
2018-02-10T10:26:05.324Z,71.97
2018-02-10T10:28:35.254Z,70.03
2018-02-10T10:31:04.242Z,70.14
2018-02-10T10:33:33.164Z,70.02
2018-02-10T10:36:02.928Z,69.30
2018-02-10T10:38:33.725Z,70.16
2018-02-10T10:41:03.006Z,70.19
2018-02-10T10:43:31.638Z,71.23
2018-02-10T10:46:00.349Z,70.79
2018-02-10T10:48:29.668Z,70.13
2018-02-10T10:50:58.559Z,71.42
2018-02-10T10:53:27.610Z,71.43
2018-02-10T10:55:56.663Z,70.93
2018-02-10T10:58:25.622Z,70.58
2018-02-10T11:00:54.841Z,70.52
2018-02-10T11:03:23.733Z,70.31
2018-02-10T11:05:52.664Z,69.12
2018-02-10T11:08:22.489Z,70.40
2018-02-10T11:10:52.159Z,71.55
2018-02-10T11:13:21.035Z,70.85
2018-02-10T11:15:49.890Z,70.61
2018-02-10T11:18:18.918Z,70.16
2018-02-10T11:20:48.647Z,71.43
2018-02-10T11:23:17.520Z,71.46
2018-02-10T11:25:47.087Z,69.87
2018-02-10T11:28:16.076Z,70.80
2018-02-10T11:30:46.025Z,71.91
2018-02-10T11:33:14.727Z,71.69
2018-02-10T11:35:43.618Z,70.74
2018-02-10T11:38:12.483Z,84.31
2018-02-10T11:40:41.786Z,65.76
2018-02-10T11:43:11.104Z,69.29
2018-02-10T11:45:40.021Z,71.05
2018-02-10T11:48:09.072Z,71.79
2018-02-10T11:50:37.889Z,71.22
2018-02-10T11:53:06.670Z,70.69
2018-02-10T11:55:35.593Z,71.24
2018-02-10T11:58:04.149Z,72.76
2018-02-10T12:00:32.728Z,72.52
2018-02-10T12:03:01.810Z,73.11
2018-02-10T12:05:30.209Z,72.92
2018-02-10T12:07:58.520Z,72.92
2018-02-10T12:10:27.647Z,71.30
2018-02-10T12:12:55.964Z,71.43
2018-02-10T12:15:24.606Z,70.44
2018-02-10T12:17:53.379Z,69.90
2018-02-10T12:20:22.032Z,70.11
2018-02-10T12:22:51.694Z,68.52
2018-02-10T12:25:20.192Z,67.50
2018-02-10T12:27:49.502Z,68.03
2018-02-10T12:30:18.084Z,68.04
2018-02-10T12:32:46.533Z,68.40
2018-02-10T12:35:16.332Z,67.31
2018-02-10T12:37:44.954Z,67.54
2018-02-10T12:40:14.310Z,69.19
2018-02-10T12:42:42.800Z,69.26
2018-02-10T12:45:11.581Z,69.25
2018-02-10T12:47:46.115Z,69.49
2018-02-10T12:50:15.358Z,68.05
2018-02-10T12:52:43.741Z,68.41
2018-02-10T12:55:12.491Z,68.76
2018-02-10T12:57:40.897Z,68.15
2018-02-10T13:00:09.361Z,69.47
2018-02-10T13:02:37.975Z,70.02
2018-02-10T13:05:06.408Z,70.08
2018-02-10T13:07:34.866Z,69.46
2018-02-10T13:10:03.317Z,70.11
2018-02-10T13:12:32.485Z,69.61
2018-02-10T13:15:00.922Z,67.11
2018-02-10T13:17:29.412Z,67.22
2018-02-10T13:19:58.051Z,67.56
2018-02-10T13:22:26.869Z,65.87
2018-02-10T13:24:56.348Z,66.03
2018-02-10T13:27:24.829Z,67.09
2018-02-10T13:29:53.258Z,67.29
2018-02-10T13:32:21.960Z,68.02
2018-02-10T13:34:50.360Z,64.26
2018-02-10T13:37:19.816Z,66.69
2018-02-10T13:39:48.484Z,68.57
2018-02-10T13:42:19.694Z,71.03
2018-02-10T13:44:49.513Z,71.70
2018-02-10T13:47:18.109Z,72.70
2018-02-10T13:49:46.482Z,74.06
2018-02-10T13:52:14.984Z,74.20
2018-02-10T13:54:43.484Z,75.52
2018-02-10T13:57:12.330Z,74.85
2018-02-10T13:59:41.726Z,74.75
2018-02-10T14:02:10.356Z,75.17
2018-02-10T14:04:39.475Z,75.17
2018-02-10T14:07:07.920Z,74.98
2018-02-10T14:09:37.402Z,74.80
2018-02-10T14:12:05.844Z,76.15
2018-02-10T14:14:34.120Z,76.21
2018-02-10T14:17:03.509Z,77.37
2018-02-10T14:19:31.838Z,78.37
2018-02-10T14:22:00.409Z,78.96
2018-02-10T14:24:28.790Z,78.81
2018-02-10T14:26:57.644Z,80.62
2018-02-10T14:29:26.015Z,80.93
2018-02-10T14:31:54.761Z,81.92
2018-02-10T14:34:23.195Z,82.05
2018-02-10T14:36:52.534Z,81.66
2018-02-10T14:39:21.171Z,81.47
2018-02-10T14:41:50.332Z,82.79
2018-02-10T14:44:19.219Z,82.64
2018-02-10T14:46:47.973Z,82.08
2018-02-10T14:49:17.968Z,82.20
2018-02-10T14:51:46.512Z,82.94
2018-02-10T14:54:14.993Z,82.55
2018-02-10T14:56:44.455Z,82.64
2018-02-10T14:59:12.986Z,82.16
2018-02-10T15:01:41.833Z,82.01
2018-02-10T15:04:10.424Z,82.27
2018-02-10T15:06:39.740Z,81.80
2018-02-10T15:09:08.105Z,81.36
2018-02-10T15:11:37.457Z,81.54
2018-02-10T15:14:05.912Z,81.50
2018-02-10T15:16:34.671Z,82.16
2018-02-10T15:19:03.480Z,80.92
2018-02-10T15:21:32.273Z,80.36
2018-02-10T15:24:00.681Z,80.65
2018-02-10T15:26:29.057Z,80.85
2018-02-10T15:28:57.494Z,81.68
2018-02-10T15:34:35.244Z,81.21
2018-02-10T15:37:04.724Z,82.22
2018-02-10T15:39:33.339Z,82.27
2018-02-10T15:42:02.319Z,81.71
2018-02-10T15:44:30.873Z,82.21
2018-02-10T15:46:59.339Z,81.53
2018-02-10T15:49:28.628Z,82.71
2018-02-10T15:51:57.394Z,83.21
2018-02-10T15:54:25.927Z,83.45
2018-02-10T15:56:54.300Z,83.03
2018-02-10T15:59:22.770Z,82.87
2018-02-10T16:01:51.901Z,83.11
2018-02-10T16:04:20.345Z,82.57
2018-02-10T16:06:48.836Z,82.18
2018-02-10T16:09:17.247Z,83.11
2018-02-10T16:11:45.694Z,82.96
2018-02-10T16:14:14.899Z,82.47
2018-02-10T16:16:43.832Z,83.37
2018-02-10T16:19:13.397Z,83.22
2018-02-10T16:21:42.134Z,82.50
2018-02-10T16:24:10.564Z,83.56
2018-02-10T16:26:39.648Z,83.36
2018-02-10T16:29:08.269Z,83.38
2018-02-10T16:31:36.866Z,82.83
2018-02-10T16:34:06.936Z,82.80
2018-02-10T16:36:35.312Z,83.10
2018-02-10T16:39:03.980Z,83.72
2018-02-10T16:41:32.568Z,82.82
2018-02-10T16:44:01.381Z,83.14
2018-02-10T16:46:30.123Z,83.89
2018-02-10T16:48:58.784Z,84.22
2018-02-10T16:51:27.355Z,83.97
2018-02-10T16:53:55.663Z,83.96
2018-02-10T16:56:23.978Z,83.58
2018-02-10T16:58:52.752Z,83.85
2018-02-10T17:01:21.821Z,84.07
2018-02-10T17:03:50.132Z,84.53
2018-02-10T17:06:19.553Z,84.39
2018-02-10T17:08:47.890Z,84.74
2018-02-10T17:11:16.225Z,84.06
2018-02-10T17:13:44.555Z,84.08
2018-02-10T17:16:13.691Z,84.50
2018-02-10T17:18:41.984Z,84.11
2018-02-10T17:21:10.696Z,83.79
2018-02-10T17:23:38.980Z,83.71
2018-02-10T17:26:07.317Z,84.10
2018-02-10T17:28:35.585Z,84.19
2018-02-10T17:31:04.657Z,83.88
2018-02-10T17:33:32.916Z,83.67
2018-02-10T17:36:02.299Z,84.53
2018-02-10T17:38:31.322Z,83.91
2018-02-10T17:41:00.552Z,83.48
2018-02-10T17:43:28.803Z,83.13
2018-02-10T17:45:57.874Z,82.97
2018-02-10T17:48:26.129Z,82.21
2018-02-10T17:50:54.410Z,81.14
2018-02-10T17:53:22.921Z,81.38
2018-02-10T17:55:51.309Z,81.43
2018-02-10T17:58:19.582Z,81.10
2018-02-10T18:00:47.849Z,81.41
2018-02-10T18:03:16.858Z,81.54
2018-02-10T18:05:45.928Z,81.76
2018-02-10T18:08:15.019Z,80.57
2018-02-10T18:10:43.594Z,81.62
2018-02-10T18:13:12.083Z,81.61
2018-02-10T18:15:40.440Z,81.45
2018-02-10T18:18:08.999Z,81.65
2018-02-10T18:20:37.387Z,81.53
2018-02-10T18:23:05.698Z,82.16
2018-02-10T18:25:36.268Z,82.22
2018-02-10T18:28:05.368Z,82.14
2018-02-10T18:30:33.766Z,82.45
2018-02-10T18:33:03.222Z,82.35
2018-02-10T18:35:31.632Z,82.92
2018-02-10T18:38:00.165Z,82.10
2018-02-10T18:40:28.566Z,82.71
2018-02-10T18:42:57.615Z,83.00
2018-02-10T18:45:25.900Z,83.34
2018-02-10T18:47:54.219Z,83.90
2018-02-10T18:50:22.504Z,83.58
2018-02-10T18:52:50.775Z,83.95
2018-02-10T18:55:20.073Z,84.03
2018-02-10T18:57:48.428Z,83.65
2018-02-10T19:00:17.519Z,84.01
2018-02-10T19:02:45.779Z,84.26
2018-02-10T19:05:14.182Z,84.06
2018-02-10T19:07:42.479Z,84.03
2018-02-10T19:10:10.744Z,84.11
2018-02-10T19:12:39.027Z,83.71
2018-02-10T19:15:07.307Z,83.27
2018-02-10T19:17:35.596Z,83.09
2018-02-10T19:20:03.849Z,82.02
2018-02-10T19:22:32.890Z,81.95
2018-02-10T19:25:01.167Z,82.09
2018-02-10T19:27:29.488Z,82.43
2018-02-10T19:29:57.756Z,82.33
2018-02-10T19:32:26.069Z,81.63
2018-02-10T19:34:54.328Z,80.29
2018-02-10T19:37:22.614Z,80.70
2018-02-10T19:39:50.921Z,80.81
2018-02-10T19:42:19.256Z,80.21
2018-02-10T19:44:47.505Z,79.08
2018-02-10T19:47:15.781Z,78.66
2018-02-10T19:49:45.808Z,78.52
2018-02-10T19:52:14.166Z,78.75
2018-02-10T19:54:42.592Z,77.98
2018-02-10T19:57:10.843Z,77.20
2018-02-10T19:59:39.932Z,77.66
2018-02-10T20:02:08.214Z,77.16
2018-02-10T20:04:37.291Z,77.26
2018-02-10T20:07:05.587Z,77.18
2018-02-10T20:09:33.866Z,77.28
2018-02-10T20:12:02.123Z,77.94
2018-02-10T20:14:31.180Z,77.41
2018-02-10T20:16:59.590Z,77.15
2018-02-10T20:19:27.939Z,77.44
2018-02-10T20:21:56.275Z,76.18
2018-02-10T20:24:24.613Z,76.35
2018-02-10T20:26:52.919Z,76.11
2018-02-10T20:29:22.133Z,75.87
2018-02-10T20:31:50.426Z,76.40
2018-02-10T20:34:18.728Z,76.39
2018-02-10T20:36:47.020Z,76.02
2018-02-10T20:39:15.344Z,76.49
2018-02-10T20:41:44.414Z,76.16
2018-02-10T20:44:12.701Z,75.59
2018-02-10T20:46:41.149Z,76.40
2018-02-10T20:49:09.460Z,75.79
2018-02-10T20:51:37.724Z,75.92
2018-02-10T20:54:06.992Z,75.83
2018-02-10T20:56:35.248Z,76.09
2018-02-10T20:59:04.313Z,76.01
2018-02-10T21:01:32.611Z,76.51
2018-02-10T21:04:01.164Z,75.80
2018-02-10T21:06:30.365Z,75.44
2018-02-10T21:08:58.750Z,75.81
2018-02-10T21:11:27.030Z,74.94
2018-02-10T21:13:55.335Z,75.21
2018-02-10T21:16:23.628Z,75.19
2018-02-10T21:18:51.923Z,75.17
2018-02-10T21:21:20.204Z,75.23
2018-02-10T21:23:48.808Z,75.02
2018-02-10T21:26:17.093Z,74.86
2018-02-10T21:28:45.373Z,75.24
2018-02-10T21:31:13.648Z,75.42
2018-02-10T21:33:41.963Z,75.42
2018-02-10T21:36:10.273Z,75.91
2018-02-10T21:38:38.546Z,75.87
2018-02-10T21:41:06.824Z,75.81
2018-02-10T21:43:35.898Z,76.40
2018-02-10T21:46:04.216Z,76.66
2018-02-10T21:48:32.467Z,76.45
2018-02-10T21:51:01.561Z,75.92
2018-02-10T21:53:29.831Z,76.45
2018-02-10T21:55:58.108Z,77.19
2018-02-10T21:58:26.372Z,77.17
2018-02-10T22:00:54.669Z,76.81
2018-02-10T22:03:22.912Z,76.81
2018-02-10T22:05:51.942Z,75.86
2018-02-10T22:08:20.208Z,76.04
2018-02-10T22:10:48.496Z,77.10
2018-02-10T22:13:16.757Z,77.47
2018-02-10T22:15:45.042Z,76.95
2018-02-10T22:18:14.088Z,76.57
2018-02-10T22:20:43.121Z,77.62
2018-02-10T22:23:11.404Z,77.53
2018-02-10T22:25:39.849Z,77.50
2018-02-10T22:28:08.154Z,77.51
2018-02-10T22:30:36.492Z,78.26
2018-02-10T22:33:04.748Z,77.91
2018-02-10T22:35:33.792Z,77.51
2018-02-10T22:38:02.096Z,77.93
2018-02-10T22:40:31.079Z,78.10
2018-02-10T22:42:59.373Z,77.86
2018-02-10T22:45:27.623Z,77.27
2018-02-10T22:47:55.895Z,77.47
2018-02-10T22:50:24.141Z,77.47
2018-02-10T22:52:52.418Z,77.86
2018-02-10T22:55:20.748Z,78.11
2018-02-10T22:57:49.010Z,78.03
2018-02-10T23:00:17.282Z,78.12
2018-02-10T23:02:45.719Z,78.24
2018-02-10T23:05:13.979Z,77.98
2018-02-10T23:07:42.272Z,77.70
2018-02-10T23:10:10.579Z,77.46
2018-02-10T23:12:39.472Z,78.38
2018-02-10T23:15:07.738Z,78.54
2018-02-10T23:17:36.090Z,78.82
2018-02-10T23:20:04.351Z,78.68
2018-02-10T23:22:32.636Z,78.86
2018-02-10T23:25:00.916Z,78.88
2018-02-10T23:27:29.202Z,79.06
2018-02-10T23:29:57.460Z,78.86
2018-02-10T23:32:25.799Z,78.29
2018-02-10T23:34:54.108Z,77.26
2018-02-10T23:37:22.408Z,77.74
2018-02-10T23:39:50.683Z,77.10
2018-02-10T23:42:18.954Z,77.84
2018-02-10T23:44:48.004Z,78.63
2018-02-10T23:47:16.278Z,77.97
2018-02-10T23:49:44.563Z,77.91
2018-02-10T23:52:13.454Z,77.65
2018-02-10T23:54:42.474Z,77.11
2018-02-10T23:57:10.788Z,77.74
2018-02-10T23:59:39.164Z,77.45
